createdAt,value
2018-11-23T00:01:42.719Z,39.43
2018-11-23T00:04:11.014Z,40.13
2018-11-23T00:06:39.270Z,41.20
2018-11-23T00:09:07.566Z,35.97
2018-11-23T00:11:35.828Z,37.07
2018-11-23T00:14:04.193Z,36.93
2018-11-23T00:16:32.495Z,37.17
2018-11-23T00:19:00.753Z,40.17
2018-11-23T00:21:29.100Z,38.87
2018-11-23T00:23:57.367Z,35.33
2018-11-23T00:26:25.678Z,40.37
2018-11-23T00:28:53.967Z,33.73
2018-11-23T00:31:22.345Z,34.50
2018-11-23T00:33:50.607Z,36.37
2018-11-23T00:36:19.306Z,33.73
2018-11-23T00:38:47.598Z,39.57
2018-11-23T00:41:15.846Z,36.90
2018-11-23T00:43:44.126Z,38.83
2018-11-23T00:46:12.396Z,37.77
2018-11-23T00:48:40.667Z,36.87
2018-11-23T00:51:08.957Z,34.80
2018-11-23T00:53:37.230Z,33.90
2018-11-23T00:56:05.544Z,33.47
2018-11-23T00:58:33.827Z,34.60
2018-11-23T01:01:02.075Z,35.37
2018-11-23T01:03:30.351Z,36.57
2018-11-23T01:05:58.664Z,30.93
2018-11-23T01:08:26.929Z,33.93
2018-11-23T01:10:55.236Z,37.00
2018-11-23T01:13:23.472Z,32.03
2018-11-23T01:15:51.778Z,31.80
2018-11-23T01:18:20.084Z,34.70
2018-11-23T01:20:48.348Z,41.90
2018-11-23T01:23:30.044Z,39.67
2018-11-23T01:25:58.949Z,36.53
2018-11-23T01:28:27.203Z,40.03
2018-11-23T01:30:55.466Z,35.43
2018-11-23T01:33:23.738Z,39.40
2018-11-23T01:35:51.998Z,37.07
2018-11-23T01:38:20.272Z,34.53
2018-11-23T01:40:48.563Z,34.00
2018-11-23T01:43:16.815Z,37.63
2018-11-23T01:45:45.087Z,40.27
2018-11-23T01:48:13.360Z,35.60
2018-11-23T01:50:41.699Z,36.33
2018-11-23T01:53:10.007Z,36.17
2018-11-23T01:55:38.347Z,41.37
2018-11-23T01:58:06.596Z,34.43
2018-11-23T02:00:34.929Z,35.80
2018-11-23T02:03:03.196Z,35.43
2018-11-23T02:05:31.475Z,35.13
2018-11-23T02:07:59.752Z,39.57
2018-11-23T02:10:28.015Z,34.77
2018-11-23T02:12:56.278Z,36.57
2018-11-23T02:15:24.550Z,34.40
2018-11-23T02:17:53.252Z,34.20
2018-11-23T02:20:22.143Z,33.23
2018-11-23T02:22:50.375Z,46.93
2018-11-23T02:25:18.636Z,35.27
2018-11-23T02:27:46.896Z,36.63
2018-11-23T02:30:17.924Z,34.73
2018-11-23T02:32:46.247Z,35.27
2018-11-23T02:35:15.167Z,39.80
2018-11-23T02:37:43.423Z,36.30
2018-11-23T02:40:12.847Z,36.80
2018-11-23T02:42:41.165Z,37.40
2018-11-23T02:45:10.659Z,37.93
2018-11-23T02:47:39.315Z,35.43
2018-11-23T02:50:07.764Z,36.00
2018-11-23T02:52:36.083Z,36.60
2018-11-23T02:55:04.445Z,36.77
2018-11-23T02:57:32.692Z,38.50
2018-11-23T03:00:00.978Z,35.03
2018-11-23T03:02:29.237Z,35.13
2018-11-23T03:04:57.486Z,38.47
2018-11-23T03:07:25.898Z,38.30
2018-11-23T03:09:54.485Z,39.53
2018-11-23T03:12:22.731Z,37.60
2018-11-23T03:14:50.970Z,36.23
2018-11-23T03:17:19.247Z,38.63
2018-11-23T03:19:47.550Z,35.93
2018-11-23T03:22:15.808Z,38.47
2018-11-23T03:24:44.117Z,37.87
2018-11-23T03:27:12.380Z,37.37
2018-11-23T03:29:40.656Z,34.47
2018-11-23T03:32:09.057Z,35.27
2018-11-23T03:34:37.308Z,37.97
2018-11-23T03:37:05.604Z,35.17
2018-11-23T03:39:34.414Z,39.13
2018-11-23T03:42:02.691Z,37.87
2018-11-23T03:44:30.999Z,38.70
2018-11-23T03:46:59.315Z,39.73
2018-11-23T03:49:27.588Z,37.90
2018-11-23T03:51:55.853Z,39.23
2018-11-23T03:54:24.112Z,41.30
2018-11-23T03:56:52.403Z,37.80
2018-11-23T03:59:20.644Z,37.70
2018-11-23T04:01:48.927Z,38.70
2018-11-23T04:04:17.163Z,38.70
2018-11-23T04:06:45.410Z,38.07
2018-11-23T04:09:13.710Z,44.48
2018-11-23T04:11:41.968Z,40.67
2018-11-23T04:14:10.253Z,37.93
2018-11-23T04:16:38.512Z,49.33
2018-11-23T04:19:06.763Z,39.60
2018-11-23T04:21:35.054Z,35.10
2018-11-23T04:24:03.319Z,39.07
2018-11-23T04:26:31.567Z,37.80
2018-11-23T04:28:59.815Z,37.57
2018-11-23T04:31:28.088Z,40.23
2018-11-23T04:33:56.395Z,38.73
2018-11-23T04:36:24.671Z,41.57
2018-11-23T04:38:52.935Z,42.13
2018-11-23T04:41:21.193Z,40.80
2018-11-23T04:43:49.638Z,38.43
2018-11-23T04:46:17.911Z,44.03
2018-11-23T04:48:46.171Z,39.33
2018-11-23T04:51:14.440Z,38.33
2018-11-23T04:53:42.710Z,37.87
2018-11-23T04:56:10.975Z,41.33
2018-11-23T04:58:39.238Z,37.97
2018-11-23T05:01:07.485Z,40.13
2018-11-23T05:03:35.746Z,41.73
2018-11-23T05:06:04.043Z,39.53
2018-11-23T05:08:32.310Z,44.13
2018-11-23T05:11:00.630Z,41.37
2018-11-23T05:13:28.871Z,36.93
2018-11-23T05:15:57.149Z,41.60
2018-11-23T05:18:25.391Z,43.73
2018-11-23T05:20:53.665Z,37.53
2018-11-23T05:23:22.358Z,36.53
2018-11-23T05:25:50.623Z,37.77
2018-11-23T05:28:18.895Z,36.20
2018-11-23T05:30:47.143Z,39.03
2018-11-23T05:33:15.390Z,36.83
2018-11-23T05:35:43.663Z,37.60
2018-11-23T05:38:11.901Z,39.73
2018-11-23T05:40:40.171Z,37.43
2018-11-23T05:43:09.334Z,41.47
2018-11-23T05:45:37.590Z,41.17
2018-11-23T05:48:05.863Z,36.20
2018-11-23T05:50:34.982Z,38.40
2018-11-23T05:53:03.824Z,39.10
2018-11-23T05:55:32.083Z,38.63
2018-11-23T05:58:00.343Z,39.83
2018-11-23T06:00:30.489Z,42.47
2018-11-23T06:02:58.743Z,44.27
2018-11-23T06:05:26.984Z,39.53
2018-11-23T06:07:55.252Z,41.57
2018-11-23T06:10:23.662Z,35.40
2018-11-23T06:12:51.973Z,40.10
2018-11-23T06:15:21.602Z,38.93
2018-11-23T06:17:50.022Z,37.20
2018-11-23T06:20:19.935Z,38.63
2018-11-23T06:22:48.995Z,36.47
2018-11-23T06:25:32.679Z,38.03
2018-11-23T06:28:00.923Z,41.83
2018-11-23T06:30:29.172Z,42.70
2018-11-23T06:33:02.867Z,38.80
2018-11-23T06:35:31.173Z,43.73
2018-11-23T06:37:59.427Z,41.30
2018-11-23T06:40:27.677Z,43.20
2018-11-23T06:42:55.954Z,40.33
2018-11-23T06:45:24.289Z,39.80
2018-11-23T06:47:52.556Z,39.83
2018-11-23T06:50:20.811Z,38.53
2018-11-23T06:52:49.080Z,39.03
2018-11-23T06:55:17.338Z,38.50
2018-11-23T06:57:45.626Z,37.13
2018-11-23T07:00:15.103Z,42.87
2018-11-23T07:02:44.159Z,36.63
2018-11-23T07:05:12.747Z,40.20
2018-11-23T07:07:40.990Z,43.23
2018-11-23T07:10:09.669Z,45.17
2018-11-23T07:12:38.691Z,40.60
2018-11-23T07:15:09.475Z,39.13
2018-11-23T07:17:37.838Z,43.47
2018-11-23T07:20:07.015Z,43.07
2018-11-23T07:22:35.324Z,46.10
2018-11-23T07:25:03.600Z,47.80
2018-11-23T07:27:31.907Z,43.60
2018-11-23T07:30:00.187Z,43.10
2018-11-23T07:32:28.455Z,45.77
2018-11-23T07:34:56.725Z,41.20
2018-11-23T07:37:24.982Z,44.27
2018-11-23T07:39:58.931Z,46.60
2018-11-23T07:42:28.651Z,45.23
2018-11-23T07:44:56.967Z,43.50
2018-11-23T07:47:25.249Z,45.57
2018-11-23T07:49:53.525Z,41.07
2018-11-23T07:52:21.840Z,45.67
2018-11-23T07:54:50.109Z,43.73
2018-11-23T07:57:18.386Z,48.23
2018-11-23T07:59:46.659Z,41.00
2018-11-23T08:02:15.022Z,45.93
2018-11-23T08:04:43.863Z,43.83
2018-11-23T08:07:12.487Z,45.70
2018-11-23T08:09:41.447Z,48.00
2018-11-23T08:12:09.750Z,50.30
2018-11-23T08:14:38.029Z,46.40
2018-11-23T08:17:06.339Z,44.37
2018-11-23T08:19:34.596Z,45.73
2018-11-23T08:22:02.979Z,52.80
2018-11-23T08:24:31.263Z,42.03
2018-11-23T08:26:59.515Z,42.70
2018-11-23T08:29:27.785Z,43.87
2018-11-23T08:31:56.046Z,43.07
2018-11-23T08:34:24.323Z,46.40
2018-11-23T08:36:52.624Z,44.73
2018-11-23T08:39:20.911Z,44.57
2018-11-23T08:41:49.364Z,44.30
2018-11-23T08:44:17.739Z,44.93
2018-11-23T08:46:46.023Z,45.07
2018-11-23T08:49:14.322Z,45.30
2018-11-23T08:51:42.676Z,42.87
2018-11-23T08:54:10.965Z,44.20
2018-11-23T08:56:39.254Z,43.03
2018-11-23T08:59:07.516Z,47.90
2018-11-23T09:01:35.816Z,44.10
2018-11-23T09:04:04.075Z,43.43
2018-11-23T09:06:32.434Z,48.63
2018-11-23T09:09:01.082Z,44.97
2018-11-23T09:11:31.844Z,43.30
2018-11-23T09:14:00.148Z,46.10
2018-11-23T09:16:28.780Z,46.97
2018-11-23T09:18:57.102Z,46.10
2018-11-23T09:21:25.440Z,47.77
2018-11-23T09:23:53.726Z,42.77
2018-11-23T09:26:22.025Z,41.93
2018-11-23T09:28:50.382Z,42.07
2018-11-23T09:31:18.683Z,54.90
2018-11-23T09:33:46.925Z,39.73
2018-11-23T09:36:15.215Z,44.13
2018-11-23T09:38:43.527Z,50.23
2018-11-23T09:41:11.793Z,46.83
2018-11-23T09:43:40.096Z,45.93
2018-11-23T09:46:08.410Z,47.23
2018-11-23T09:48:36.769Z,45.00
2018-11-23T09:51:05.103Z,45.30
2018-11-23T09:53:33.869Z,45.50
2018-11-23T09:56:02.159Z,47.00
2018-11-23T09:58:30.511Z,45.00
2018-11-23T10:00:59.197Z,46.40
2018-11-23T10:03:27.508Z,42.90
2018-11-23T10:05:55.895Z,39.73
2018-11-23T10:08:24.159Z,43.43
2018-11-23T10:10:52.460Z,46.07
2018-11-23T10:13:20.820Z,45.23
2018-11-23T10:15:49.245Z,46.00
2018-11-23T10:18:17.586Z,44.53
2018-11-23T10:20:45.915Z,39.57
2018-11-23T10:23:14.843Z,46.07
2018-11-23T10:25:43.327Z,45.03
2018-11-23T10:28:11.612Z,45.43
2018-11-23T10:30:39.887Z,42.03
2018-11-23T10:33:08.330Z,40.60
2018-11-23T10:35:36.652Z,42.93
2018-11-23T10:38:05.935Z,47.10
2018-11-23T10:40:35.767Z,46.80
2018-11-23T10:43:04.170Z,45.37
2018-11-23T10:45:33.375Z,42.67
2018-11-23T10:48:02.864Z,43.13
2018-11-23T10:50:32.615Z,50.43
2018-11-23T10:53:00.914Z,44.27
2018-11-23T10:55:30.559Z,49.50
2018-11-23T10:57:58.943Z,45.03
2018-11-23T11:00:32.579Z,49.63
2018-11-23T11:03:04.510Z,45.00
2018-11-23T11:05:36.667Z,44.67
2018-11-23T11:08:05.539Z,47.33
2018-11-23T11:10:33.842Z,46.13
2018-11-23T11:13:02.479Z,45.27
2018-11-23T11:15:30.750Z,47.60
2018-11-23T11:17:59.009Z,43.80
2018-11-23T11:20:27.273Z,47.30
2018-11-23T11:22:55.568Z,42.70
2018-11-23T11:25:23.975Z,48.33
2018-11-23T11:27:52.354Z,49.67
2018-11-23T11:30:20.855Z,42.03
2018-11-23T11:32:49.601Z,49.33
2018-11-23T11:35:17.910Z,47.93
2018-11-23T11:37:46.262Z,43.50
2018-11-23T11:40:15.986Z,45.10
2018-11-23T11:42:44.472Z,42.13
2018-11-23T11:45:14.043Z,51.90
2018-11-23T11:47:42.996Z,42.13
2018-11-23T11:50:11.673Z,43.80
2018-11-23T11:52:41.047Z,41.73
2018-11-23T11:56:33.729Z,46.07
2018-11-23T11:59:01.967Z,44.60
2018-11-23T12:01:30.331Z,45.60
2018-11-23T12:03:58.574Z,42.27
2018-11-23T12:06:26.855Z,42.07
2018-11-23T12:08:55.139Z,40.97
2018-11-23T12:11:23.951Z,40.10
2018-11-23T12:13:52.222Z,42.97
2018-11-23T12:16:20.467Z,45.00
2018-11-23T12:18:48.770Z,40.63
2018-11-23T12:21:17.040Z,43.80
2018-11-23T12:23:45.502Z,43.27
2018-11-23T12:26:13.796Z,46.17
2018-11-23T12:28:42.103Z,43.20
2018-11-23T12:31:10.692Z,45.13
2018-11-23T12:33:38.943Z,40.37
2018-11-23T12:36:07.220Z,44.67
2018-11-23T12:38:35.496Z,44.77
2018-11-23T12:41:03.764Z,44.07
2018-11-23T12:43:32.047Z,43.23
2018-11-23T12:46:00.311Z,42.43
2018-11-23T12:48:28.557Z,44.47
2018-11-23T12:50:56.843Z,40.67
2018-11-23T12:53:25.115Z,43.87
2018-11-23T12:55:53.474Z,45.57
2018-11-23T12:58:21.738Z,44.60
2018-11-23T13:00:49.999Z,46.10
2018-11-23T13:03:18.303Z,41.83
2018-11-23T13:05:46.543Z,41.10
2018-11-23T13:08:14.827Z,42.93
2018-11-23T13:10:43.136Z,44.30
2018-11-23T13:13:11.359Z,42.60
2018-11-23T13:15:39.636Z,43.67
2018-11-23T13:18:07.906Z,45.90
2018-11-23T13:23:41.503Z,42.87
2018-11-23T13:26:09.818Z,43.37
2018-11-23T13:28:38.112Z,43.87
2018-11-23T13:31:06.351Z,43.67
2018-11-23T13:33:34.577Z,42.17
2018-11-23T13:36:02.912Z,41.77
2018-11-23T13:38:31.199Z,46.27
2018-11-23T13:40:59.430Z,42.37
2018-11-23T13:43:28.486Z,42.23
2018-11-23T13:45:56.770Z,43.47
2018-11-23T13:48:25.020Z,44.60
2018-11-23T13:50:53.299Z,45.67
2018-11-23T13:53:21.552Z,41.67
2018-11-23T13:55:49.802Z,40.07
2018-11-23T13:58:18.073Z,40.03
2018-11-23T14:00:46.322Z,40.60
2018-11-23T14:03:14.575Z,41.07
2018-11-23T14:05:42.818Z,41.33
2018-11-23T14:08:11.071Z,39.57
2018-11-23T14:10:39.298Z,37.90
2018-11-23T14:13:11.556Z,38.57
2018-11-23T14:15:35.826Z,43.23
2018-11-23T14:18:04.095Z,37.97
2018-11-23T14:20:32.363Z,38.57
2018-11-23T14:23:00.646Z,40.73
2018-11-23T14:25:30.135Z,44.23
2018-11-23T14:27:58.790Z,40.10
2018-11-23T14:30:29.084Z,38.53
2018-11-23T14:32:57.596Z,41.93
2018-11-23T14:35:27.294Z,40.43
2018-11-23T14:37:56.294Z,43.30
2018-11-23T14:40:24.848Z,43.77
2018-11-23T14:42:53.902Z,45.70
2018-11-23T14:45:24.154Z,47.97
2018-11-23T14:47:53.223Z,49.70
2018-11-23T14:50:22.815Z,41.37
2018-11-23T14:52:52.104Z,45.00
2018-11-23T14:55:20.600Z,44.07
2018-11-23T14:57:48.927Z,43.03
2018-11-23T15:00:19.771Z,45.60
2018-11-23T15:02:49.215Z,46.43
2018-11-23T15:05:18.083Z,46.27
2018-11-23T15:07:46.454Z,43.23
2018-11-23T15:10:16.090Z,49.93
2018-11-23T15:12:44.936Z,39.17
2018-11-23T15:15:14.796Z,44.73
2018-11-23T15:17:44.327Z,51.33
2018-11-23T15:20:17.378Z,42.43
2018-11-23T15:22:46.210Z,42.77
2018-11-23T15:25:14.455Z,42.80
2018-11-23T15:27:43.379Z,41.80
2018-11-23T15:30:13.884Z,40.33
2018-11-23T15:32:42.559Z,44.73
2018-11-23T15:35:10.818Z,46.57
2018-11-23T15:37:39.063Z,45.93
2018-11-23T15:40:11.030Z,42.80
2018-11-23T15:42:39.381Z,41.27
2018-11-23T15:45:09.042Z,45.10
2018-11-23T15:47:37.310Z,43.60
2018-11-23T15:50:06.223Z,45.17
2018-11-23T15:52:34.501Z,44.30
2018-11-23T15:55:02.792Z,40.87
2018-11-23T15:57:31.142Z,47.70
2018-11-23T15:59:59.411Z,44.50
2018-11-23T16:02:27.642Z,42.67
2018-11-23T16:04:56.404Z,46.77
2018-11-23T16:07:24.655Z,44.50
2018-11-23T16:09:52.925Z,47.50
2018-11-23T16:12:21.170Z,45.70
2018-11-23T16:14:49.409Z,51.97
2018-11-23T16:17:17.710Z,45.00
2018-11-23T16:19:45.946Z,45.83
2018-11-23T16:22:14.201Z,49.10
2018-11-23T16:24:42.459Z,49.90
2018-11-23T16:27:10.711Z,45.57
2018-11-23T16:29:38.967Z,45.20
2018-11-23T16:32:07.209Z,46.00
2018-11-23T16:34:35.479Z,44.67
2018-11-23T16:37:03.796Z,44.50
2018-11-23T16:39:32.138Z,47.57
2018-11-23T16:42:00.450Z,41.67
2018-11-23T16:44:28.710Z,47.00
2018-11-23T16:46:56.939Z,47.57
2018-11-23T16:49:25.171Z,46.07
2018-11-23T16:51:53.410Z,44.37
2018-11-23T16:54:21.675Z,47.57
2018-11-23T16:56:49.941Z,49.07
2018-11-23T16:59:18.182Z,48.47
2018-11-23T17:01:46.426Z,45.60
2018-11-23T17:04:14.689Z,49.87
2018-11-23T17:06:42.995Z,46.97
2018-11-23T17:09:11.255Z,45.63
2018-11-23T17:11:39.508Z,43.57
2018-11-23T17:14:07.763Z,45.93
2018-11-23T17:16:36.032Z,44.00
2018-11-23T17:19:04.691Z,43.17
2018-11-23T17:21:33.053Z,47.13
2018-11-23T17:24:01.352Z,42.63
2018-11-23T17:26:29.626Z,47.27
2018-11-23T17:28:57.874Z,43.77
2018-11-23T17:31:26.170Z,46.23
2018-11-23T17:33:54.487Z,47.97
2018-11-23T17:36:22.719Z,45.83
2018-11-23T17:38:51.182Z,45.07
2018-11-23T17:41:19.436Z,46.83
2018-11-23T17:43:47.716Z,46.57
2018-11-23T17:46:15.988Z,46.33
2018-11-23T17:48:44.252Z,46.53
2018-11-23T17:51:12.521Z,45.90
2018-11-23T17:53:40.765Z,46.77
2018-11-23T17:56:09.074Z,48.17
2018-11-23T17:58:37.326Z,50.00
2018-11-23T18:01:06.138Z,48.23
2018-11-23T18:03:34.482Z,50.37
2018-11-23T18:06:03.799Z,45.70
2018-11-23T18:08:32.303Z,48.30
2018-11-23T18:10:59.498Z,46.87
2018-11-23T18:13:27.842Z,52.70
2018-11-23T18:15:56.078Z,48.23
2018-11-23T18:18:24.349Z,50.80
2018-11-23T18:20:52.623Z,42.77
2018-11-23T18:23:20.877Z,43.93
2018-11-23T18:25:49.120Z,48.70
2018-11-23T18:28:17.403Z,42.43
2018-11-23T18:30:45.639Z,45.20
2018-11-23T18:33:14.084Z,54.50
2018-11-23T18:35:42.323Z,47.13
2018-11-23T18:38:10.591Z,47.57
2018-11-23T18:40:38.908Z,46.97
2018-11-23T18:43:07.182Z,53.80
2018-11-23T18:45:35.506Z,48.40
2018-11-23T18:48:03.779Z,50.53
2018-11-23T18:50:32.046Z,47.10
2018-11-23T18:53:00.315Z,51.47
2018-11-23T18:55:28.583Z,51.40
2018-11-23T18:57:56.886Z,52.87
2018-11-23T19:00:25.170Z,50.97
2018-11-23T19:02:53.491Z,49.03
2018-11-23T19:05:23.483Z,50.80
2018-11-23T19:07:51.832Z,49.90
2018-11-23T19:10:20.107Z,51.97
2018-11-23T19:12:48.343Z,47.63
2018-11-23T19:15:17.526Z,52.07
2018-11-23T19:17:45.422Z,52.90
2018-11-23T19:20:14.247Z,44.63
2018-11-23T19:22:43.049Z,44.57
2018-11-23T19:25:11.306Z,50.87
2018-11-23T19:27:39.548Z,52.80
2018-11-23T19:30:08.889Z,50.17
2018-11-23T19:32:37.150Z,49.03
2018-11-23T19:35:05.895Z,46.30
2018-11-23T19:37:34.162Z,47.23
2018-11-23T19:40:02.431Z,53.77
2018-11-23T19:42:30.671Z,49.37
2018-11-23T19:44:58.920Z,53.77
2018-11-23T19:47:27.178Z,62.57
2018-11-23T19:49:55.483Z,58.23
2018-11-23T19:52:23.750Z,56.00
2018-11-23T19:54:52.026Z,52.67
2018-11-23T19:57:20.251Z,50.33
2018-11-23T19:59:48.570Z,47.30
2018-11-23T20:02:16.832Z,48.67
2018-11-23T20:04:45.066Z,52.57
2018-11-23T20:07:13.335Z,52.43
2018-11-23T20:09:41.580Z,54.50
2018-11-23T20:12:09.866Z,47.73
2018-11-23T20:14:38.131Z,52.33
2018-11-23T20:17:06.372Z,48.57
2018-11-23T20:19:34.650Z,51.57
2018-11-23T20:22:02.898Z,51.83
2018-11-23T20:24:31.162Z,47.70
2018-11-23T20:26:59.411Z,51.37
2018-11-23T20:29:27.687Z,50.80
2018-11-23T20:31:55.931Z,48.10
2018-11-23T20:34:24.178Z,47.67
2018-11-23T20:36:52.463Z,48.50
2018-11-23T20:39:20.719Z,51.17
2018-11-23T20:41:48.942Z,46.67
2018-11-23T20:44:17.207Z,55.70
2018-11-23T20:46:45.482Z,48.07
2018-11-23T20:49:13.732Z,53.47
2018-11-23T20:51:42.007Z,51.63
2018-11-23T20:54:10.255Z,52.63
2018-11-23T20:56:38.550Z,53.47
2018-11-23T20:59:06.814Z,52.70
2018-11-23T21:01:35.063Z,47.43
2018-11-23T21:04:03.287Z,45.70
2018-11-23T21:06:31.527Z,45.47
2018-11-23T21:08:59.823Z,47.43
2018-11-23T21:11:28.092Z,45.30
2018-11-23T21:13:56.391Z,48.60
2018-11-23T21:16:24.606Z,55.80
2018-11-23T21:18:52.848Z,44.63
2018-11-23T21:21:21.141Z,52.57
2018-11-23T21:23:49.373Z,44.73
2018-11-23T21:26:17.633Z,47.20
2018-11-23T21:28:45.847Z,41.70
2018-11-23T21:31:14.081Z,47.77
2018-11-23T21:33:42.375Z,44.10
2018-11-23T21:36:10.643Z,42.73
2018-11-23T21:38:38.940Z,44.60
2018-11-23T21:41:07.196Z,41.17
2018-11-23T21:43:35.452Z,39.90
2018-11-23T21:46:03.762Z,47.07
2018-11-23T21:48:32.011Z,44.53
2018-11-23T21:51:00.267Z,47.17
2018-11-23T21:53:28.514Z,46.83
2018-11-23T21:55:56.751Z,43.20
2018-11-23T21:58:25.003Z,43.43
2018-11-23T22:00:53.318Z,43.50
2018-11-23T22:03:21.583Z,46.83
2018-11-23T22:05:49.823Z,46.83
2018-11-23T22:08:18.114Z,45.23
2018-11-23T22:10:46.348Z,47.63
2018-11-23T22:13:14.586Z,44.00
2018-11-23T22:15:42.826Z,47.43
2018-11-23T22:18:11.103Z,47.00
2018-11-23T22:20:39.354Z,43.00
2018-11-23T22:23:07.591Z,46.70
2018-11-23T22:25:35.854Z,46.30
2018-11-23T22:28:04.115Z,45.10
2018-11-23T22:30:32.347Z,39.10
2018-11-23T22:33:00.574Z,38.53
2018-11-23T22:35:29.345Z,46.30
2018-11-23T22:37:57.600Z,47.43
2018-11-23T22:40:25.888Z,44.67
2018-11-23T22:42:54.863Z,43.53
2018-11-23T22:45:23.121Z,40.83
2018-11-23T22:47:51.355Z,44.37
2018-11-23T22:50:20.063Z,46.70
2018-11-23T22:52:48.346Z,49.07
2018-11-23T22:55:17.122Z,43.57
2018-11-23T22:57:45.388Z,44.77
2018-11-23T23:00:29.367Z,43.37
2018-11-23T23:02:57.621Z,43.73
2018-11-23T23:05:25.890Z,49.85
2018-11-23T23:07:54.517Z,42.73
2018-11-23T23:10:22.827Z,45.73
2018-11-23T23:12:51.081Z,41.47
2018-11-23T23:15:19.374Z,47.53
2018-11-23T23:17:47.638Z,41.40
2018-11-23T23:20:16.584Z,44.70
2018-11-23T23:22:44.875Z,41.30
2018-11-23T23:25:13.174Z,45.90
2018-11-23T23:27:41.459Z,46.13
2018-11-23T23:30:12.116Z,40.03
2018-11-23T23:32:40.438Z,42.33
2018-11-23T23:35:09.325Z,38.97
2018-11-23T23:37:37.617Z,40.27
2018-11-23T23:40:07.070Z,44.47
2018-11-23T23:42:35.360Z,44.07
2018-11-23T23:45:03.631Z,44.83
2018-11-23T23:47:31.886Z,42.50
2018-11-23T23:50:00.173Z,40.83
2018-11-23T23:52:28.479Z,42.43
2018-11-23T23:54:56.758Z,42.93
2018-11-23T23:57:25.067Z,48.63
2018-11-23T23:59:53.467Z,42.23
